Time;durP1;ratioP1;P1;durP2;ratioP2;P2;SDS_P1;SDS_P2;PMS_P1;PMS_P2;Temp;Humidity;BMP_temperature;BMP_pressure;BME280_temperature;BME280_humidity;BME280_pressure;Samples;Min_cycle;Max_cycle;Signal;HPM_P1;HPM_P2
2022/04/23 00:01:42;;;;;;;0.40;0.27;;;;;;;5.57;92.82;100634.19;5072848;28;20434;-66
2022/04/23 00:04:08;;;;;;;0.40;0.30;;;;;;;5.57;92.90;100636.88;5072905;28;20445;-65
2022/04/23 00:06:35;;;;;;;0.40;0.30;;;;;;;5.47;92.51;100634.19;5072944;28;20441;-66
2022/04/23 00:09:02;;;;;;;0.40;0.30;;;;;;;5.39;91.35;100625.84;5072644;28;20452;-67
2022/04/23 00:11:29;;;;;;;0.40;0.30;;;;;;;5.34;90.74;100633.88;5072770;28;20922;-66
2022/04/23 00:13:57;;;;;;;0.40;0.30;;;;;;;5.19;91.73;100630.09;5072794;28;20538;-65
2022/04/23 00:16:24;;;;;;;0.40;0.30;;;;;;;5.19;91.46;100623.94;5072810;28;20456;-66
2022/04/23 00:18:50;;;;;;;0.40;0.40;;;;;;;5.18;91.54;100628.50;5074814;28;20468;-66
2022/04/23 00:21:18;;;;;;;0.40;0.30;;;;;;;5.05;91.19;100629.78;5076286;28;20449;-66
2022/04/23 00:23:45;;;;;;;0.40;0.30;;;;;;;5.05;91.37;100631.66;5076363;28;20531;-65
2022/04/23 00:26:12;;;;;;;0.40;0.30;;;;;;;5.00;90.88;100632.47;5076518;28;20463;-66
2022/04/23 00:28:38;;;;;;;0.40;0.30;;;;;;;4.91;90.60;100630.50;5076252;28;20481;-66
2022/04/23 00:31:06;;;;;;;0.40;0.30;;;;;;;4.89;91.53;100627.31;5076466;28;20448;-66
2022/04/23 00:33:32;;;;;;;0.40;0.30;;;;;;;4.90;91.59;100629.72;5075956;28;20437;-66
2022/04/23 00:35:59;;;;;;;0.40;0.30;;;;;;;4.87;91.70;100624.88;5076140;28;20453;-67
2022/04/23 00:38:25;;;;;;;1.60;1.50;;;;;;;4.89;91.95;100627.31;5075962;28;20465;-66
2022/04/23 00:40:52;;;;;;;0.40;0.30;;;;;;;4.90;92.95;100626.22;5075934;28;20445;-66
2022/04/23 00:43:29;;;;;;;0.40;0.30;;;;;;;4.98;92.93;100631.91;5075838;28;20458;-67
2022/04/23 00:45:57;;;;;;;0.40;0.30;;;;;;;4.97;93.88;100624.91;5075418;28;20938;-66
2022/04/23 00:48:26;;;;;;;0.40;0.30;;;;;;;5.01;94.34;100628.69;5075795;28;20461;-66
2022/04/23 00:50:54;;;;;;;0.40;0.30;;;;;;;5.05;94.81;100631.66;5075864;28;20824;-66
2022/04/23 00:53:21;;;;;;;0.50;0.30;;;;;;;5.15;94.08;100634.38;5075704;28;20441;-66
2022/04/23 00:55:48;;;;;;;0.40;0.30;;;;;;;5.09;94.45;100631.91;5075551;28;20822;-64
2022/04/23 00:58:16;;;;;;;0.40;0.30;;;;;;;5.00;94.79;100629.78;5075716;28;20461;-66
2022/04/23 01:00:43;;;;;;;0.40;0.30;;;;;;;4.96;95.43;100638.63;5075612;28;20441;-67
2022/04/23 01:03:12;;;;;;;0.40;0.30;;;;;;;5.01;94.79;100631.38;5075588;28;20544;-67
2022/04/23 01:05:44;;;;;;;0.40;0.30;;;;;;;5.06;94.24;100634.09;5075412;28;20826;-66
2022/04/23 01:08:14;;;;;;;0.40;0.30;;;;;;;5.02;94.26;100632.19;5075439;28;20560;-66
2022/04/23 01:10:42;;;;;;;1.40;1.37;;;;;;;4.91;92.35;100622.47;5075449;28;20449;-66
2022/04/23 01:13:08;;;;;;;0.40;0.30;;;;;;;4.92;91.98;100626.78;5075420;28;20494;-66
2022/04/23 01:15:35;;;;;;;0.40;0.30;;;;;;;4.85;91.82;100628.88;5075031;28;20564;-66
2022/04/23 01:18:03;;;;;;;0.40;0.30;;;;;;;4.77;91.30;100630.19;5074833;28;20979;-67
2022/04/23 01:20:33;;;;;;;0.40;0.30;;;;;;;4.71;90.60;100632.03;5075251;28;20457;-66
2022/04/23 01:22:59;;;;;;;0.40;0.30;;;;;;;4.68;90.67;100629.88;5075244;28;20836;-67
2022/04/23 01:25:26;;;;;;;0.40;0.30;;;;;;;4.69;90.94;100625.31;5075433;28;20449;-67
2022/04/23 01:27:53;;;;;;;0.40;0.30;;;;;;;4.64;90.43;100618.03;5074703;28;20850;-66
2022/04/23 01:30:20;;;;;;;0.40;0.30;;;;;;;4.48;91.86;100619.06;5074969;28;20475;-67
2022/04/23 01:32:46;;;;;;;0.40;0.30;;;;;;;4.37;92.92;100623.53;5074941;28;20449;-67
2022/04/23 01:35:13;;;;;;;0.40;0.30;;;;;;;4.44;91.26;100621.44;5074917;28;20480;-66
2022/04/23 01:37:41;;;;;;;0.90;0.90;;;;;;;4.51;90.70;100622.00;5074843;28;20452;-67
2022/04/23 01:40:08;;;;;;;0.40;0.30;;;;;;;4.52;91.41;100622.84;5074466;28;20970;-67
2022/04/23 01:42:34;;;;;;;0.40;0.30;;;;;;;4.45;93.68;100623.03;5074788;28;20445;-66
2022/04/23 01:45:01;;;;;;;0.40;0.30;;;;;;;4.47;94.05;100623.59;5074412;28;20949;-67
2022/04/23 01:47:27;;;;;;;0.40;0.30;;;;;;;4.47;94.72;100615.56;5074738;28;20442;-66
2022/04/23 01:49:54;;;;;;;0.40;0.30;;;;;;;4.40;94.99;100623.03;5074688;28;20519;-66
2022/04/23 01:52:20;;;;;;;0.40;0.30;;;;;;;4.48;94.90;100619.06;5074500;28;20516;-66
2022/04/23 01:54:48;;;;;;;0.40;0.30;;;;;;;4.41;94.82;100616.59;5074423;28;20481;-67
2022/04/23 01:57:14;;;;;;;0.40;0.30;;;;;;;4.45;94.38;100617.69;5074364;28;20442;-66
2022/04/23 01:59:41;;;;;;;0.40;0.30;;;;;;;4.40;94.94;100624.91;5074586;28;20877;-66
2022/04/23 02:02:07;;;;;;;2.10;2.00;;;;;;;4.35;95.25;100624.88;5074159;28;20452;-66
2022/04/23 02:04:34;;;;;;;0.40;0.30;;;;;;;4.36;95.34;100623.78;5074354;28;20529;-66
2022/04/23 02:07:00;;;;;;;0.40;0.30;;;;;;;4.29;95.90;100624.00;5074240;28;20453;-67
2022/04/23 02:09:26;;;;;;;1.73;1.63;;;;;;;4.26;94.22;100630.72;5074406;28;20511;-66
2022/04/23 02:11:56;;;;;;;0.40;0.30;;;;;;;4.24;93.16;100622.09;5074531;28;20855;-64
2022/04/23 02:14:23;;;;;;;0.40;0.30;;;;;;;4.05;94.62;100620.91;5073974;28;20667;-66
2022/04/23 02:16:49;;;;;;;0.40;0.30;;;;;;;4.10;95.10;100628.16;5074187;28;20444;-66
2022/04/23 02:19:16;;;;;;;0.40;0.30;;;;;;;4.09;95.81;100632.72;5073934;28;20562;-67
2022/04/23 02:21:43;;;;;;;0.40;0.30;;;;;;;4.01;95.54;100623.28;5073947;28;20495;-68
2022/04/23 02:24:10;;;;;;;0.40;0.30;;;;;;;4.07;93.48;100634.84;5074001;28;20449;-65
2022/04/23 02:26:36;;;;;;;0.40;0.30;;;;;;;3.94;92.47;100632.59;5073983;28;20460;-66
2022/04/23 02:29:04;;;;;;;0.40;0.30;;;;;;;3.90;93.27;100632.31;5073244;28;20899;-65
2022/04/23 02:31:30;;;;;;;0.40;0.30;;;;;;;3.86;93.08;100630.41;5073840;28;20467;-66
2022/04/23 02:33:57;;;;;;;0.40;0.30;;;;;;;3.77;92.85;100638.91;5073853;28;20440;-66
2022/04/23 02:36:23;;;;;;;0.40;0.30;;;;;;;3.70;93.97;100635.63;5074166;28;20495;-66
2022/04/23 02:38:51;;;;;;;0.40;0.30;;;;;;;3.71;94.48;100634.53;5073648;28;20461;-65
2022/04/23 02:41:19;;;;;;;0.40;0.30;;;;;;;3.65;94.38;100632.88;5073332;28;20433;-66
2022/04/23 02:43:45;;;;;;;0.40;0.30;;;;;;;3.57;94.57;100638.69;5073705;28;20532;-66
2022/04/23 02:46:14;;;;;;;0.40;0.30;;;;;;;3.62;94.11;100632.59;5073622;28;20436;-65
2022/04/23 02:48:41;;;;;;;0.40;0.30;;;;;;;3.61;93.20;100639.00;5073464;28;20522;-65
2022/04/23 02:51:07;;;;;;;0.40;0.30;;;;;;;3.60;93.80;100637.41;5073672;28;20477;-66
2022/04/23 02:53:34;;;;;;;0.40;0.30;;;;;;;3.57;92.60;100635.22;5073551;28;20449;-66
2022/04/23 02:56:02;;;;;;;0.40;0.30;;;;;;;3.56;93.06;100630.94;5073519;28;20489;-66
2022/04/23 02:58:29;;;;;;;0.40;0.30;;;;;;;3.49;92.58;100639.94;5073490;28;20919;-66
2022/04/23 03:00:55;;;;;;;1.53;1.43;;;;;;;3.47;93.13;100638.59;5073479;28;20441;-65
2022/04/23 03:03:23;;;;;;;0.40;0.30;;;;;;;3.48;93.79;100637.53;5073639;28;20471;-63
2022/04/23 03:05:53;;;;;;;0.40;0.30;;;;;;;3.55;94.64;100635.47;5073332;28;20441;-63
2022/04/23 03:08:19;;;;;;;0.40;0.30;;;;;;;3.51;95.54;100640.53;5073417;28;20453;-68
2022/04/23 03:10:46;;;;;;;0.40;0.30;;;;;;;3.50;95.50;100638.13;5073379;28;20815;-66
2022/04/23 03:13:14;;;;;;;0.40;0.30;;;;;;;3.56;95.41;100637.09;5073345;28;20441;-67
2022/04/23 03:15:42;;;;;;;0.40;0.30;;;;;;;3.50;96.31;100643.47;5073400;28;20523;-67
2022/04/23 03:18:11;;;;;;;0.40;0.30;;;;;;;3.48;96.18;100645.56;5073261;28;20515;-66
2022/04/23 03:20:40;;;;;;;0.43;0.30;;;;;;;3.52;95.80;100646.69;5073189;28;20448;-66
2022/04/23 03:23:07;;;;;;;0.40;0.30;;;;;;;3.54;95.57;100649.91;5073244;28;20437;-66
2022/04/23 03:25:34;;;;;;;0.40;0.30;;;;;;;3.59;94.89;100641.16;5073116;28;20448;-66
2022/04/23 03:28:01;;;;;;;0.40;0.30;;;;;;;3.59;94.30;100639.28;5072972;28;20461;-65
2022/04/23 03:30:28;;;;;;;0.40;0.30;;;;;;;3.54;94.68;100636.50;5073222;28;20425;-66
2022/04/23 03:32:54;;;;;;;0.67;0.67;;;;;;;3.53;93.59;100637.59;5073215;28;20453;-66
2022/04/23 03:35:21;;;;;;;0.60;0.60;;;;;;;3.45;93.18;100630.00;5073131;28;20855;-66
2022/04/23 03:37:49;;;;;;;0.40;0.30;;;;;;;3.32;93.16;100633.06;5072989;28;20445;-66
2022/04/23 03:40:16;;;;;;;0.40;0.30;;;;;;;3.35;93.05;100648.66;5073116;28;20473;-65
2022/04/23 03:42:48;;;;;;;0.87;0.87;;;;;;;3.19;92.52;100637.78;5072723;28;20864;-65
2022/04/23 03:45:15;;;;;;;0.40;0.30;;;;;;;3.13;91.99;100644.13;5073162;28;20798;-63
2022/04/23 03:47:45;;;;;;;0.40;0.30;;;;;;;3.15;92.38;100644.69;5073026;28;20441;-63
2022/04/23 03:50:12;;;;;;;0.40;0.30;;;;;;;3.14;91.99;100650.28;5073248;28;20433;-62
2022/04/23 03:52:39;;;;;;;0.40;0.30;;;;;;;3.18;91.85;100654.06;5074262;28;20536;-64
2022/04/23 03:55:07;;;;;;;0.40;0.30;;;;;;;3.16;91.09;100654.34;5077551;28;20488;-64
2022/04/23 03:57:43;;;;;;;0.40;0.30;;;;;;;3.10;91.50;100652.66;5076821;28;20459;-64
2022/04/23 04:00:11;;;;;;;0.40;0.30;;;;;;;3.02;92.23;100661.13;5076693;28;20421;-64
2022/04/23 04:02:38;;;;;;;0.40;0.30;;;;;;;2.94;91.60;100648.97;5076227;28;20942;-64
2022/04/23 04:05:04;;;;;;;0.40;0.30;;;;;;;2.94;92.41;100648.19;5076565;28;20491;-64
2022/04/23 04:07:31;;;;;;;0.40;0.30;;;;;;;2.88;93.53;100650.00;5076528;28;20488;-64
2022/04/23 04:10:00;;;;;;;0.40;0.30;;;;;;;2.95;92.81;100657.81;5076151;28;20477;-63
2022/04/23 04:12:28;;;;;;;0.40;0.30;;;;;;;3.05;91.98;100652.56;5076528;28;20433;-63
2022/04/23 04:14:55;;;;;;;0.40;0.30;;;;;;;3.15;91.79;100663.44;5076222;28;20476;-63
2022/04/23 04:17:21;;;;;;;0.40;0.30;;;;;;;3.17;92.81;100660.50;5076825;28;20830;-64
2022/04/23 04:19:48;;;;;;;0.40;0.30;;;;;;;3.27;92.95;100664.06;5076236;28;20456;-63
2022/04/23 04:22:15;;;;;;;0.40;0.30;;;;;;;3.35;93.98;100656.69;5076356;28;20449;-64
2022/04/23 04:24:41;;;;;;;0.40;0.30;;;;;;;3.42;94.33;100649.25;5076264;28;20445;-64
2022/04/23 04:27:08;;;;;;;0.40;0.30;;;;;;;3.47;95.16;100650.13;5075542;28;20495;-64
2022/04/23 04:29:36;;;;;;;0.60;0.60;;;;;;;3.63;95.18;100653.78;5075080;28;20480;-64
2022/04/23 04:32:03;;;;;;;0.40;0.30;;;;;;;3.74;96.71;100654.66;5081625;22;20505;-70
2022/04/23 04:34:30;;;;;;;0.40;0.30;;;;;;;3.88;97.84;100655.06;5055812;28;20442;-69
2022/04/23 04:37:02;;;;;;;0.40;0.30;;;;;;;3.98;99.31;100661.31;5055773;28;20589;-70
2022/04/23 04:39:29;;;;;;;0.40;0.30;;;;;;;4.13;99.18;100659.84;5055875;28;20451;-70
2022/04/23 04:41:55;;;;;;;1.03;1.03;;;;;;;4.28;99.50;100657.25;5055630;28;20462;-70
2022/04/23 04:44:22;;;;;;;0.40;0.30;;;;;;;4.46;99.37;100661.41;5055341;28;20496;-69
2022/04/23 04:46:49;;;;;;;0.40;0.30;;;;;;;4.53;99.25;100652.06;5055608;28;20455;-72
2022/04/23 04:49:16;;;;;;;0.40;0.30;;;;;;;4.65;99.26;100659.09;5055555;28;20450;-70
2022/04/23 04:51:42;;;;;;;0.40;0.30;;;;;;;4.69;98.59;100663.72;5055511;28;20466;-70
2022/04/23 04:54:09;;;;;;;0.40;0.30;;;;;;;4.75;97.50;100661.84;5055442;28;20453;-70
2022/04/23 04:56:35;;;;;;;1.00;1.00;;;;;;;4.87;97.13;100667.81;5055403;28;20536;-72
2022/04/23 04:59:02;;;;;;;0.40;0.30;;;;;;;4.96;96.93;100676.19;5055353;28;20497;-72
2022/04/23 05:01:28;;;;;;;0.40;0.30;;;;;;;5.11;96.29;100668.19;5055264;28;20553;-73
2022/04/23 05:03:57;;;;;;;0.40;0.30;;;;;;;5.19;96.13;100675.75;5054639;28;20936;-73
2022/04/23 05:06:23;;;;;;;0.40;0.30;;;;;;;5.31;95.93;100676.34;5055271;28;20442;-72
2022/04/23 05:08:50;;;;;;;0.40;0.30;;;;;;;5.37;95.57;100677.16;5055161;28;20444;-72
2022/04/23 05:11:17;;;;;;;0.40;0.30;;;;;;;5.50;95.26;100670.47;5054934;28;20469;-70
2022/04/23 05:13:43;;;;;;;0.40;0.30;;;;;;;5.59;95.54;100668.88;5055066;28;20500;-70
2022/04/23 05:16:10;;;;;;;0.40;0.30;;;;;;;5.77;95.33;100676.44;5054664;28;21064;-70
2022/04/23 05:18:36;;;;;;;0.40;0.30;;;;;;;5.86;95.42;100684.78;5054757;28;21001;-70
2022/04/23 05:21:05;;;;;;;0.40;0.30;;;;;;;5.97;95.88;100680.25;5054597;28;20434;-71
2022/04/23 05:23:32;;;;;;;0.40;0.30;;;;;;;6.07;95.74;100680.25;5054985;28;20450;-70
2022/04/23 05:25:58;;;;;;;0.40;0.30;;;;;;;6.19;95.73;100686.16;5054974;28;20442;-71
2022/04/23 05:28:25;;;;;;;0.40;0.30;;;;;;;6.29;95.90;100682.69;5054881;28;20445;-70
2022/04/23 05:30:51;;;;;;;0.40;0.30;;;;;;;6.42;95.43;100690.22;5054429;28;20438;-71
2022/04/23 05:33:17;;;;;;;0.40;0.30;;;;;;;6.52;95.05;100684.00;5054355;28;20952;-71
2022/04/23 05:35:44;;;;;;;0.40;0.30;;;;;;;6.64;94.75;100681.84;5054588;28;20490;-71
2022/04/23 05:38:12;;;;;;;0.50;0.40;;;;;;;6.75;94.28;100679.91;5054550;28;20807;-71
2022/04/23 05:40:38;;;;;;;0.40;0.30;;;;;;;6.87;93.64;100685.00;5054545;28;20446;-71
2022/04/23 05:43:05;;;;;;;0.40;0.30;;;;;;;6.96;92.93;100686.06;5054536;28;20469;-71
2022/04/23 05:45:31;;;;;;;0.40;0.30;;;;;;;7.06;91.97;100683.31;5054417;28;20446;-71
2022/04/23 05:47:58;;;;;;;0.40;0.30;;;;;;;7.12;91.75;100684.09;5054502;28;20434;-71
2022/04/23 05:50:24;;;;;;;0.40;0.30;;;;;;;7.22;90.92;100689.47;5054414;28;20443;-71
2022/04/23 05:52:52;;;;;;;0.40;0.30;;;;;;;7.32;89.91;100684.03;5053909;28;21021;-70
2022/04/23 05:55:20;;;;;;;0.50;0.50;;;;;;;7.42;89.36;100685.88;5054212;28;20482;-71
2022/04/23 05:57:46;;;;;;;0.40;0.30;;;;;;;7.50;88.21;100688.78;5054326;28;20446;-71
2022/04/23 06:00:14;;;;;;;0.40;0.30;;;;;;;7.57;87.59;100678.50;5054218;28;20447;-70
2022/04/23 06:02:41;;;;;;;0.40;0.30;;;;;;;7.70;86.89;100684.34;5054059;28;20528;-71
2022/04/23 06:05:08;;;;;;;0.40;0.30;;;;;;;7.76;86.36;100689.44;5054094;28;20951;-70
2022/04/23 06:07:35;;;;;;;0.43;0.30;;;;;;;7.85;85.53;100686.97;5054098;28;20841;-71
2022/04/23 06:10:02;;;;;;;0.40;0.30;;;;;;;8.01;85.06;100690.34;5054039;28;20849;-71
2022/04/23 06:12:29;;;;;;;0.40;0.30;;;;;;;8.11;84.78;100686.78;5054007;28;20469;-71
2022/04/23 06:14:56;;;;;;;0.40;0.30;;;;;;;8.26;84.35;100695.53;5053737;28;20453;-71
2022/04/23 06:17:25;;;;;;;0.40;0.30;;;;;;;8.34;83.22;100684.16;5053406;28;20478;-71
2022/04/23 06:19:52;;;;;;;0.40;0.30;;;;;;;8.44;82.52;100690.56;5053880;28;20443;-71
2022/04/23 06:22:19;;;;;;;0.40;0.30;;;;;;;8.57;82.70;100676.41;5053776;28;20470;-71
2022/04/23 06:24:45;;;;;;;0.40;0.30;;;;;;;8.71;81.72;100692.75;5053496;28;20990;-71
2022/04/23 06:27:12;;;;;;;0.40;0.30;;;;;;;8.83;80.51;100691.25;5053758;28;20442;-71
2022/04/23 06:29:40;;;;;;;0.40;0.30;;;;;;;8.99;79.42;100697.31;5053720;28;20446;-72
2022/04/23 06:32:08;;;;;;;0.50;0.40;;;;;;;9.10;79.59;100693.38;5053392;28;20505;-72
2022/04/23 06:34:35;;;;;;;0.40;0.30;;;;;;;9.15;80.42;100689.81;5053665;28;20449;-72
2022/04/23 06:37:01;;;;;;;0.40;0.30;;;;;;;9.27;79.87;100690.22;5053531;28;20572;-71
2022/04/23 06:39:28;;;;;;;0.40;0.30;;;;;;;9.37;78.61;100688.47;5053569;28;20516;-72
2022/04/23 06:41:54;;;;;;;0.50;0.43;;;;;;;9.41;77.32;100689.50;5053135;28;20979;-73
2022/04/23 06:44:21;;;;;;;0.40;0.30;;;;;;;9.43;75.48;100692.72;5053128;28;20940;-73
2022/04/23 06:46:48;;;;;;;0.40;0.30;;;;;;;9.52;75.52;100699.91;5053142;28;20454;-72
2022/04/23 06:49:15;;;;;;;0.40;0.30;;;;;;;9.57;74.87;100693.63;5053320;28;20463;-72
2022/04/23 06:51:41;;;;;;;0.40;0.30;;;;;;;9.65;75.58;100694.84;5053243;28;20466;-72
2022/04/23 06:54:08;;;;;;;1.13;1.13;;;;;;;9.79;74.45;100701.16;5053285;28;20916;-72
2022/04/23 06:56:34;;;;;;;0.40;0.30;;;;;;;9.82;74.00;100698.66;5053305;28;20893;-72
2022/04/23 06:59:01;;;;;;;0.40;0.30;;;;;;;9.90;73.95;100691.78;5053288;28;20454;-72
2022/04/23 07:01:28;;;;;;;0.40;0.30;;;;;;;10.05;73.92;100701.59;5052856;28;20980;-72
2022/04/23 07:03:55;;;;;;;0.40;0.30;;;;;;;10.14;74.07;100697.09;5053208;28;20434;-72
2022/04/23 07:06:22;;;;;;;0.40;0.30;;;;;;;10.23;72.82;100695.34;5052771;28;20994;-73
2022/04/23 07:08:48;;;;;;;0.40;0.30;;;;;;;10.37;72.66;100702.72;5053132;28;20445;-72
2022/04/23 07:11:14;;;;;;;0.40;0.20;;;;;;;10.46;72.84;100692.81;5052948;28;20500;-73
2022/04/23 07:13:41;;;;;;;0.40;0.30;;;;;;;10.57;71.82;100696.94;5052753;28;20955;-73
2022/04/23 07:16:09;;;;;;;0.40;0.30;;;;;;;10.68;71.17;100694.88;5052926;28;20481;-73
2022/04/23 07:18:39;;;;;;;0.40;0.30;;;;;;;10.75;68.57;100693.34;5053068;28;20445;-73
2022/04/23 07:21:07;;;;;;;0.40;0.30;;;;;;;10.92;69.70;100695.47;5052928;28;20445;-72
2022/04/23 07:26:17;;;;;;;0.40;0.40;;;;;;;11.11;67.31;100700.81;5052809;28;20469;-73
2022/04/23 07:28:43;;;;;;;0.40;0.30;;;;;;;11.24;66.00;100696.47;5056939;28;20446;-72
2022/04/23 07:31:10;;;;;;;0.40;0.30;;;;;;;11.29;65.17;100691.78;5056752;28;20549;-73
2022/04/23 07:39:06;;;;;;;0.40;0.30;;;;;;;11.57;64.52;100691.72;5056746;28;20409;-73
2022/04/23 07:41:32;;;;;;;0.40;0.30;;;;;;;11.58;64.65;100690.63;5056824;28;20457;-72
2022/04/23 07:43:59;;;;;;;0.50;0.40;;;;;;;11.60;65.68;100696.56;5056839;28;20453;-72
2022/04/23 07:46:26;;;;;;;0.40;0.30;;;;;;;11.59;64.08;100703.88;5056843;28;20449;-73
2022/04/23 07:48:52;;;;;;;0.40;0.30;;;;;;;11.62;62.61;100702.47;5056511;28;20460;-72
2022/04/23 07:51:20;;;;;;;0.40;0.30;;;;;;;11.71;63.91;100699.84;5056460;28;20446;-74
2022/04/23 07:53:48;;;;;;;0.40;0.30;;;;;;;11.83;63.24;100695.50;5056651;28;20442;-69
2022/04/23 07:56:15;;;;;;;0.40;0.30;;;;;;;12.01;63.90;100698.38;5056527;28;20504;-70
2022/04/23 07:58:41;;;;;;;0.50;0.30;;;;;;;12.03;62.54;100691.50;5056576;28;20445;-69
2022/04/23 08:01:07;;;;;;;0.40;0.30;;;;;;;12.12;62.98;100681.50;5056500;28;20525;-72
2022/04/23 08:03:34;;;;;;;0.40;0.30;;;;;;;12.27;61.97;100691.22;5056747;28;20447;-75
2022/04/23 08:06:01;;;;;;;0.40;0.30;;;;;;;12.31;61.97;100684.03;5056403;28;20450;-75
2022/04/23 08:08:27;;;;;;;0.40;0.30;;;;;;;12.37;61.35;100674.66;5056367;28;20450;-75
2022/04/23 08:10:55;;;;;;;0.40;0.30;;;;;;;12.43;59.64;100682.66;5055972;28;20970;-75
2022/04/23 08:13:24;;;;;;;0.40;0.30;;;;;;;12.54;60.12;100678.59;5056262;28;20449;-72
2022/04/23 08:15:50;;;;;;;0.40;0.30;;;;;;;12.58;60.29;100685.78;5055896;28;20462;-75
2022/04/23 08:18:18;;;;;;;0.40;0.30;;;;;;;12.65;59.82;100685.34;5056162;28;20446;-74
2022/04/23 08:20:45;;;;;;;0.40;0.30;;;;;;;12.74;60.67;100677.22;5056149;28;20449;-73
2022/04/23 08:23:12;;;;;;;0.40;0.30;;;;;;;12.81;60.55;100683.03;5056009;28;20840;-76
2022/04/23 08:25:38;;;;;;;0.40;0.30;;;;;;;12.86;59.58;100678.25;5056084;28;20450;-74
2022/04/23 08:30:47;;;;;;;0.40;0.30;;;;;;;13.00;59.37;100671.88;5033146;28;20442;-74
2022/04/23 08:33:14;;;;;;;0.40;0.30;;;;;;;13.07;58.52;100673.03;5055467;28;20473;-74
2022/04/23 08:35:41;;;;;;;0.40;0.30;;;;;;;13.10;57.58;100672.44;5055881;28;20449;-73
2022/04/23 08:38:09;;;;;;;0.40;0.30;;;;;;;13.20;58.95;100678.69;5055429;28;20486;-73
2022/04/23 08:40:37;;;;;;;0.40;0.30;;;;;;;13.33;59.38;100670.44;5055343;28;20437;-74
2022/04/23 08:43:04;;;;;;;0.40;0.30;;;;;;;13.45;57.98;100658.09;5055629;28;20466;-74
2022/04/23 08:45:32;;;;;;;0.40;0.20;;;;;;;13.43;57.96;100665.78;5055658;28;20470;-73
2022/04/23 08:48:00;;;;;;;0.40;0.30;;;;;;;13.53;58.68;100668.19;5055600;28;20525;-74
2022/04/23 08:50:29;;;;;;;0.40;0.30;;;;;;;13.69;57.27;100663.09;5055163;28;20824;-74
2022/04/23 08:52:57;;;;;;;0.40;0.30;;;;;;;13.71;57.28;100660.84;5055425;28;20462;-74
2022/04/23 08:55:27;;;;;;;0.40;0.30;;;;;;;13.78;57.28;100656.53;5055450;28;20529;-73
2022/04/23 08:57:54;;;;;;;0.40;0.30;;;;;;;13.81;57.14;100653.19;5055386;28;20862;-74
2022/04/23 09:00:21;;;;;;;0.40;0.20;;;;;;;13.81;55.69;100653.19;5055327;28;20541;-73
2022/04/23 09:02:48;;;;;;;0.40;0.30;;;;;;;13.86;55.27;100650.28;5054934;28;20987;-74
2022/04/23 09:05:15;;;;;;;0.40;0.27;;;;;;;13.95;55.84;100646.75;5055298;28;20453;-69
2022/04/23 09:07:53;;;;;;;0.40;0.30;;;;;;;14.08;56.26;100643.06;5055259;28;20442;-69
2022/04/23 09:10:20;;;;;;;0.40;0.30;;;;;;;14.16;55.72;100642.22;5055269;28;20482;-73
2022/04/23 09:12:55;;;;;;;1.27;1.27;;;;;;;14.26;54.61;100643.81;5054941;28;20502;-73
2022/04/23 09:23:44;;;;;;;0.40;0.40;;;;;;;14.74;53.68;100634.53;5054855;28;20420;-73
2022/04/23 09:26:17;;;;;;;0.40;0.20;;;;;;;14.86;52.97;100635.44;5054815;28;20446;-73
2022/04/23 09:28:48;;;;;;;0.40;0.30;;;;;;;14.79;53.35;100629.72;5054863;28;20457;-73
2022/04/23 09:31:15;;;;;;;0.40;0.30;;;;;;;14.88;53.07;100627.75;5054326;28;21001;-72
2022/04/23 09:33:48;;;;;;;0.40;0.30;;;;;;;15.06;52.87;100628.44;5054805;28;20518;-73
2022/04/23 09:36:16;;;;;;;0.40;0.30;;;;;;;15.12;52.03;100620.88;5054305;28;20935;-73
2022/04/23 09:38:42;;;;;;;0.40;0.30;;;;;;;15.05;51.42;100615.13;5054617;28;20552;-73
2022/04/23 09:41:19;;;;;;;0.40;0.30;;;;;;;15.21;51.40;100615.34;5054273;28;20478;-72
2022/04/23 09:43:48;;;;;;;0.53;0.53;;;;;;;15.45;51.04;100607.31;5054489;28;20442;-73
2022/04/23 09:46:15;;;;;;;0.40;0.30;;;;;;;15.65;50.16;100608.47;5054340;28;20489;-73
2022/04/23 09:48:43;;;;;;;0.40;0.27;;;;;;;15.59;49.49;100604.31;5054407;28;20461;-73
2022/04/23 09:51:24;;;;;;;0.40;0.30;;;;;;;15.73;47.03;100596.66;5053190;28;20510;-73
2022/04/23 09:53:53;;;;;;;0.40;0.30;;;;;;;15.91;47.61;100591.84;5054383;28;20426;-73
2022/04/23 09:56:21;;;;;;;0.40;0.30;;;;;;;16.09;48.43;100595.19;5054326;28;20453;-73
2022/04/23 09:58:48;;;;;;;0.40;0.20;;;;;;;16.28;47.74;100589.97;5054318;28;20442;-73
2022/04/23 10:01:15;;;;;;;0.40;0.30;;;;;;;16.47;47.04;100594.09;5054165;28;20466;-73
2022/04/23 10:03:46;;;;;;;0.40;0.30;;;;;;;16.56;46.12;100590.16;5054283;28;20525;-72
2022/04/23 10:06:14;;;;;;;0.40;0.30;;;;;;;16.73;45.11;100594.59;5054198;28;20450;-70
2022/04/23 10:08:46;;;;;;;0.40;0.30;;;;;;;16.87;45.03;100592.34;5053931;28;20932;-75
2022/04/23 10:11:15;;;;;;;0.40;0.30;;;;;;;16.96;44.52;100588.69;5053971;28;20462;-71
2022/04/23 10:13:45;;;;;;;0.40;0.30;;;;;;;16.84;42.78;100598.47;5053944;28;20446;-71
2022/04/23 10:16:13;;;;;;;0.40;0.30;;;;;;;16.76;44.87;100607.59;5053624;28;20442;-72
2022/04/23 10:18:40;;;;;;;0.40;0.30;;;;;;;16.70;44.78;100591.75;5053789;28;20544;-71
2022/04/23 10:21:09;;;;;;;0.40;0.30;;;;;;;16.76;43.57;100591.19;5053948;28;20445;-71
2022/04/23 10:24:00;;;;;;;0.40;0.30;;;;;;;16.72;43.93;100593.00;5053959;28;20449;-71
2022/04/23 10:26:48;;;;;;;0.40;0.30;;;;;;;16.88;44.83;100585.72;5054466;28;20438;-72
2022/04/23 10:29:21;;;;;;;0.40;0.30;;;;;;;16.81;44.62;100580.00;5049090;28;20460;-72
2022/04/23 10:32:18;;;;;;;0.40;0.20;;;;;;;16.91;44.25;100584.25;5053503;28;20517;-72
2022/04/23 10:34:44;;;;;;;0.40;0.30;;;;;;;16.94;43.50;100593.69;5053815;28;20431;-72
2022/04/23 10:37:18;;;;;;;0.40;0.30;;;;;;;16.89;44.17;100591.97;5053592;28;20844;-72
2022/04/23 10:40:06;;;;;;;0.40;0.30;;;;;;;16.82;44.29;100580.81;5053630;28;20533;-72
2022/04/23 10:42:34;;;;;;;0.40;0.30;;;;;;;16.80;43.02;100569.41;5053277;28;20474;-72
2022/04/23 10:45:05;;;;;;;0.40;0.30;;;;;;;16.83;44.60;100566.81;5053489;28;20449;-72
2022/04/23 10:47:34;;;;;;;0.40;0.30;;;;;;;16.98;45.20;100568.03;5053427;28;20431;-72
2022/04/23 10:50:31;;;;;;;0.40;0.30;;;;;;;17.17;43.48;100570.16;5053480;28;20452;-73
2022/04/23 10:53:03;;;;;;;0.40;0.27;;;;;;;17.27;43.81;100566.16;5053246;28;20484;-72
2022/04/23 10:55:31;;;;;;;0.40;0.30;;;;;;;17.46;44.19;100560.03;5053366;28;20418;-72
2022/04/23 10:58:21;;;;;;;0.40;0.20;;;;;;;17.71;42.73;100561.53;5053177;28;20481;-72
2022/04/23 11:00:48;;;;;;;0.40;0.27;;;;;;;18.04;45.26;100560.47;5053289;28;20458;-72
2022/04/23 11:03:14;;;;;;;0.40;0.30;;;;;;;18.25;42.01;100550.06;5052785;28;20450;-72
2022/04/23 11:14:07;;;;;;;0.40;0.30;;;;;;;18.86;40.30;100559.75;5052935;28;20409;-72
2022/04/23 11:16:34;;;;;;;0.40;0.30;;;;;;;19.02;38.80;100548.72;5052986;28;20446;-72
2022/04/23 11:19:02;;;;;;;0.40;0.30;;;;;;;19.63;39.33;100548.06;5053076;28;20489;-72
2022/04/23 11:21:31;;;;;;;0.40;0.20;;;;;;;20.75;36.72;100551.56;5052843;28;20459;-72
2022/04/23 11:23:59;;;;;;;0.40;0.30;;;;;;;21.73;36.03;100552.44;5053145;28;20446;-73
2022/04/23 11:26:42;;;;;;;0.40;0.20;;;;;;;22.55;33.22;100545.72;5054705;28;20434;-73
2022/04/23 11:29:08;;;;;;;0.40;0.30;;;;;;;22.91;33.71;100557.81;5052956;28;20454;-73
2022/04/23 11:31:35;;;;;;;0.40;0.30;;;;;;;23.55;33.47;100567.59;5052735;28;20481;-73
2022/04/23 11:34:02;;;;;;;0.40;0.30;;;;;;;24.08;32.29;100566.97;5053116;28;20843;-73
2022/04/23 11:36:31;;;;;;;0.40;0.30;;;;;;;23.71;31.35;100554.25;5053016;28;20438;-73
2022/04/23 11:38:59;;;;;;;0.40;0.30;;;;;;;24.10;31.87;100548.00;5052823;28;20482;-73
2022/04/23 11:41:31;;;;;;;0.40;0.30;;;;;;;23.40;30.09;100550.97;5052833;28;20469;-72
2022/04/23 11:44:10;;;;;;;0.40;0.20;;;;;;;22.82;32.93;100553.78;5052893;28;20454;-72
2022/04/23 11:46:41;;;;;;;0.40;0.20;;;;;;;22.94;33.05;100545.22;5052835;28;20430;-73
2022/04/23 11:49:07;;;;;;;0.63;0.63;;;;;;;23.54;32.75;100549.41;5052232;28;20794;-72
2022/04/23 11:51:34;;;;;;;0.40;0.20;;;;;;;23.81;30.94;100539.63;5052616;28;20469;-73
2022/04/23 11:54:00;;;;;;;0.40;0.30;;;;;;;22.52;32.84;100529.13;5052689;28;20449;-72
2022/04/23 11:56:29;;;;;;;0.40;0.30;;;;;;;22.31;32.16;100530.56;5052636;28;20508;-72
2022/04/23 11:58:57;;;;;;;0.40;0.30;;;;;;;23.59;32.90;100526.91;5052270;28;20489;-73
2022/04/23 12:01:27;;;;;;;0.50;0.30;;;;;;;24.66;30.48;100516.75;5052465;28;20466;-72